sensor_id;sensor_type;location;lat;lon;timestamp;P1;P2;P0
69349;PMS5003;64554;43.452;4.934;2023-09-07T00:01:34;13.00;13.00;9.25
69349;PMS5003;64554;43.452;4.934;2023-09-07T00:04:01;14.20;12.60;9.60
69349;PMS5003;64554;43.452;4.934;2023-09-07T00:06:30;10.40;10.40;7.40
69349;PMS5003;64554;43.452;4.934;2023-09-07T00:08:57;12.00;10.00;8.00
69349;PMS5003;64554;43.452;4.934;2023-09-07T00:11:23;14.00;12.00;9.40
69349;PMS5003;64554;43.452;4.934;2023-09-07T00:13:50;12.40;12.40;8.60
69349;PMS5003;64554;43.452;4.934;2023-09-07T00:16:17;11.20;11.20;7.80
69349;PMS5003;64554;43.452;4.934;2023-09-07T00:18:44;10.75;10.75;7.75
69349;PMS5003;64554;43.452;4.934;2023-09-07T00:21:11;12.00;12.00;7.40
69349;PMS5003;64554;43.452;4.934;2023-09-07T00:23:39;11.40;10.40;8.40
69349;PMS5003;64554;43.452;4.934;2023-09-07T00:26:06;10.40;10.40;8.00
69349;PMS5003;64554;43.452;4.934;2023-09-07T00:28:33;14.00;14.00;9.25
69349;PMS5003;64554;43.452;4.934;2023-09-07T00:31:00;10.75;10.75;7.00
69349;PMS5003;64554;43.452;4.934;2023-09-07T00:33:27;9.80;9.80;6.80
69349;PMS5003;64554;43.452;4.934;2023-09-07T00:35:54;11.50;10.00;7.50
69349;PMS5003;64554;43.452;4.934;2023-09-07T00:38:21;14.00;14.00;8.67
69349;PMS5003;64554;43.452;4.934;2023-09-07T00:40:47;13.20;13.20;10.00
69349;PMS5003;64554;43.452;4.934;2023-09-07T00:43:14;16.25;13.25;9.25
69349;PMS5003;64554;43.452;4.934;2023-09-07T00:45:41;13.40;12.20;7.40
69349;PMS5003;64554;43.452;4.934;2023-09-07T00:48:08;12.00;12.00;8.60
69349;PMS5003;64554;43.452;4.934;2023-09-07T00:50:35;12.00;12.00;9.00
69349;PMS5003;64554;43.452;4.934;2023-09-07T00:53:02;14.50;14.50;8.00
69349;PMS5003;64554;43.452;4.934;2023-09-07T00:55:29;8.80;8.80;7.80
69349;PMS5003;64554;43.452;4.934;2023-09-07T00:57:59;16.00;15.00;10.00
69349;PMS5003;64554;43.452;4.934;2023-09-07T01:00:26;9.40;9.40;7.00
69349;PMS5003;64554;43.452;4.934;2023-09-07T01:02:54;16.50;15.50;8.00
69349;PMS5003;64554;43.452;4.934;2023-09-07T01:05:29;12.00;12.00;8.00
69349;PMS5003;64554;43.452;4.934;2023-09-07T01:08:01;12.00;12.00;8.40
69349;PMS5003;64554;43.452;4.934;2023-09-07T01:10:31;16.25;16.25;8.50
69349;PMS5003;64554;43.452;4.934;2023-09-07T01:12:58;13.60;11.80;7.20
69349;PMS5003;64554;43.452;4.934;2023-09-07T01:15:24;13.40;13.40;8.20
69349;PMS5003;64554;43.452;4.934;2023-09-07T01:17:51;11.25;10.50;7.25
69349;PMS5003;64554;43.452;4.934;2023-09-07T01:20:18;16.00;13.80;10.20
69349;PMS5003;64554;43.452;4.934;2023-09-07T01:22:46;12.75;12.75;7.75
69349;PMS5003;64554;43.452;4.934;2023-09-07T01:25:14;12.00;12.00;7.80
69349;PMS5003;64554;43.452;4.934;2023-09-07T01:27:41;11.25;11.25;8.00
69349;PMS5003;64554;43.452;4.934;2023-09-07T01:30:08;13.00;13.00;8.00
69349;PMS5003;64554;43.452;4.934;2023-09-07T01:32:35;15.60;13.60;10.20
69349;PMS5003;64554;43.452;4.934;2023-09-07T01:35:02;14.00;14.00;9.20
69349;PMS5003;64554;43.452;4.934;2023-09-07T01:37:31;17.00;17.00;8.40
69349;PMS5003;64554;43.452;4.934;2023-09-07T01:39:58;14.40;13.40;10.40
69349;PMS5003;64554;43.452;4.934;2023-09-07T01:42:26;12.00;10.80;7.00
69349;PMS5003;64554;43.452;4.934;2023-09-07T01:44:52;13.00;13.00;9.60
69349;PMS5003;64554;43.452;4.934;2023-09-07T01:47:19;11.00;11.00;7.00
69349;PMS5003;64554;43.452;4.934;2023-09-07T01:49:46;12.40;12.40;10.00
69349;PMS5003;64554;43.452;4.934;2023-09-07T01:52:14;12.20;11.40;7.40
69349;PMS5003;64554;43.452;4.934;2023-09-07T01:54:41;16.20;14.20;8.00
69349;PMS5003;64554;43.452;4.934;2023-09-07T01:57:08;16.75;16.75;9.00
69349;PMS5003;64554;43.452;4.934;2023-09-07T01:59:35;15.80;14.00;9.60
69349;PMS5003;64554;43.452;4.934;2023-09-07T02:02:01;11.75;11.75;7.75
69349;PMS5003;64554;43.452;4.934;2023-09-07T02:04:28;16.00;16.00;9.00
69349;PMS5003;64554;43.452;4.934;2023-09-07T02:06:55;14.00;12.00;7.25
69349;PMS5003;64554;43.452;4.934;2023-09-07T02:09:22;15.00;15.00;9.00
69349;PMS5003;64554;43.452;4.934;2023-09-07T02:11:48;15.00;14.25;8.75
69349;PMS5003;64554;43.452;4.934;2023-09-07T02:14:15;14.00;12.00;9.00
69349;PMS5003;64554;43.452;4.934;2023-09-07T02:16:42;12.00;12.00;8.00
69349;PMS5003;64554;43.452;4.934;2023-09-07T02:19:09;13.33;12.33;8.33
69349;PMS5003;64554;43.452;4.934;2023-09-07T02:21:36;13.00;12.00;8.60
69349;PMS5003;64554;43.452;4.934;2023-09-07T02:24:03;11.00;11.00;8.33
69349;PMS5003;64554;43.452;4.934;2023-09-07T02:26:30;12.00;12.00;9.00
69349;PMS5003;64554;43.452;4.934;2023-09-07T02:28:56;15.40;13.80;8.00
69349;PMS5003;64554;43.452;4.934;2023-09-07T02:31:23;13.00;12.00;9.00
69349;PMS5003;64554;43.452;4.934;2023-09-07T02:33:50;11.40;11.00;7.80
69349;PMS5003;64554;43.452;4.934;2023-09-07T02:36:17;11.00;10.20;7.60
69349;PMS5003;64554;43.452;4.934;2023-09-07T02:38:44;13.75;12.75;9.00
69349;PMS5003;64554;43.452;4.934;2023-09-07T02:41:11;10.25;10.25;8.25
69349;PMS5003;64554;43.452;4.934;2023-09-07T02:43:38;10.25;10.25;8.00
69349;PMS5003;64554;43.452;4.934;2023-09-07T02:46:05;12.00;12.00;8.00
69349;PMS5003;64554;43.452;4.934;2023-09-07T02:48:32;17.75;17.00;10.00
69349;PMS5003;64554;43.452;4.934;2023-09-07T02:50:59;11.00;11.00;8.00
69349;PMS5003;64554;43.452;4.934;2023-09-07T02:53:26;11.60;10.60;7.00
69349;PMS5003;64554;43.452;4.934;2023-09-07T02:55:53;13.00;13.00;9.00
69349;PMS5003;64554;43.452;4.934;2023-09-07T02:58:19;10.20;10.20;7.20
69349;PMS5003;64554;43.452;4.934;2023-09-07T03:00:46;16.20;15.60;9.00
69349;PMS5003;64554;43.452;4.934;2023-09-07T03:03:14;12.33;12.33;9.00
69349;PMS5003;64554;43.452;4.934;2023-09-07T03:05:41;11.80;11.40;9.00
69349;PMS5003;64554;43.452;4.934;2023-09-07T03:08:08;13.00;13.00;9.00
69349;PMS5003;64554;43.452;4.934;2023-09-07T03:10:35;12.20;12.20;8.00
69349;PMS5003;64554;43.452;4.934;2023-09-07T03:13:04;12.80;12.80;8.80
69349;PMS5003;64554;43.452;4.934;2023-09-07T03:15:31;13.00;12.00;9.00
69349;PMS5003;64554;43.452;4.934;2023-09-07T03:17:58;12.50;12.50;8.00
69349;PMS5003;64554;43.452;4.934;2023-09-07T03:20:24;13.00;13.00;8.60
69349;PMS5003;64554;43.452;4.934;2023-09-07T03:22:51;11.00;10.25;7.00
69349;PMS5003;64554;43.452;4.934;2023-09-07T03:25:18;10.50;10.50;7.00
69349;PMS5003;64554;43.452;4.934;2023-09-07T03:27:45;12.50;10.50;8.00
69349;PMS5003;64554;43.452;4.934;2023-09-07T03:30:12;11.00;11.00;8.00
69349;PMS5003;64554;43.452;4.934;2023-09-07T03:32:38;14.25;14.25;8.50
69349;PMS5003;64554;43.452;4.934;2023-09-07T03:35:05;13.00;12.00;8.00
69349;PMS5003;64554;43.452;4.934;2023-09-07T03:37:36;16.80;16.80;9.00
69349;PMS5003;64554;43.452;4.934;2023-09-07T03:40:04;14.75;13.50;9.00
69349;PMS5003;64554;43.452;4.934;2023-09-07T03:42:31;13.00;12.00;8.40
69349;PMS5003;64554;43.452;4.934;2023-09-07T03:44:59;11.20;10.20;7.20
69349;PMS5003;64554;43.452;4.934;2023-09-07T03:47:26;11.20;11.20;8.20
69349;PMS5003;64554;43.452;4.934;2023-09-07T03:49:56;10.20;9.60;7.00
69349;PMS5003;64554;43.452;4.934;2023-09-07T03:52:23;11.00;11.00;8.00
69349;PMS5003;64554;43.452;4.934;2023-09-07T03:54:56;15.50;14.00;10.00
69349;PMS5003;64554;43.452;4.934;2023-09-07T03:57:24;13.40;12.60;8.00
69349;PMS5003;64554;43.452;4.934;2023-09-07T03:59:51;13.40;11.20;8.20
69349;PMS5003;64554;43.452;4.934;2023-09-07T04:02:18;10.60;10.60;7.60
69349;PMS5003;64554;43.452;4.934;2023-09-07T04:04:48;14.40;14.00;9.00
69349;PMS5003;64554;43.452;4.934;2023-09-07T04:07:16;14.20;13.20;7.80
69349;PMS5003;64554;43.452;4.934;2023-09-07T04:09:43;11.50;10.75;7.00
69349;PMS5003;64554;43.452;4.934;2023-09-07T04:12:10;13.00;13.00;8.00
69349;PMS5003;64554;43.452;4.934;2023-09-07T04:14:37;14.00;13.50;9.00
69349;PMS5003;64554;43.452;4.934;2023-09-07T04:17:04;12.40;12.40;9.40
69349;PMS5003;64554;43.452;4.934;2023-09-07T04:19:31;13.00;13.00;8.00
69349;PMS5003;64554;43.452;4.934;2023-09-07T04:21:58;14.50;12.25;9.50
69349;PMS5003;64554;43.452;4.934;2023-09-07T04:24:24;12.00;12.00;8.00
69349;PMS5003;64554;43.452;4.934;2023-09-07T04:26:51;13.50;12.00;8.00
69349;PMS5003;64554;43.452;4.934;2023-09-07T04:29:18;15.00;14.00;8.25
69349;PMS5003;64554;43.452;4.934;2023-09-07T04:31:44;16.00;12.00;8.80
69349;PMS5003;64554;43.452;4.934;2023-09-07T04:34:11;14.00;14.00;8.50
69349;PMS5003;64554;43.452;4.934;2023-09-07T04:36:38;12.80;12.80;8.80
69349;PMS5003;64554;43.452;4.934;2023-09-07T04:39:05;14.00;14.00;9.00
69349;PMS5003;64554;43.452;4.934;2023-09-07T04:41:33;14.50;13.00;8.00
69349;PMS5003;64554;43.452;4.934;2023-09-07T04:43:59;12.40;12.40;9.40
69349;PMS5003;64554;43.452;4.934;2023-09-07T04:46:26;12.50;11.50;8.00
69349;PMS5003;64554;43.452;4.934;2023-09-07T04:48:53;12.00;10.00;8.25
69349;PMS5003;64554;43.452;4.934;2023-09-07T04:51:19;14.80;12.00;9.00
69349;PMS5003;64554;43.452;4.934;2023-09-07T04:53:48;15.80;11.80;7.00
69349;PMS5003;64554;43.452;4.934;2023-09-07T04:56:17;14.00;14.00;9.00
69349;PMS5003;64554;43.452;4.934;2023-09-07T04:58:44;13.50;12.50;9.00
69349;PMS5003;64554;43.452;4.934;2023-09-07T05:01:11;16.00;16.00;9.00
69349;PMS5003;64554;43.452;4.934;2023-09-07T05:03:38;14.00;12.20;8.80
69349;PMS5003;64554;43.452;4.934;2023-09-07T05:06:09;12.80;12.80;8.00
69349;PMS5003;64554;43.452;4.934;2023-09-07T05:08:35;14.00;13.00;9.00
69349;PMS5003;64554;43.452;4.934;2023-09-07T05:11:02;13.50;13.50;10.00
69349;PMS5003;64554;43.452;4.934;2023-09-07T05:13:30;16.00;14.50;10.00
69349;PMS5003;64554;43.452;4.934;2023-09-07T05:15:57;13.00;12.00;9.00
69349;PMS5003;64554;43.452;4.934;2023-09-07T05:18:24;11.00;11.00;7.00
69349;PMS5003;64554;43.452;4.934;2023-09-07T05:20:51;11.00;11.00;9.00
69349;PMS5003;64554;43.452;4.934;2023-09-07T05:23:18;14.25;12.00;8.25
69349;PMS5003;64554;43.452;4.934;2023-09-07T05:25:46;11.60;11.60;8.40
69349;PMS5003;64554;43.452;4.934;2023-09-07T05:28:13;14.00;12.00;8.00
69349;PMS5003;64554;43.452;4.934;2023-09-07T05:30:41;13.00;12.00;10.00
69349;PMS5003;64554;43.452;4.934;2023-09-07T05:33:12;12.40;12.40;8.00
69349;PMS5003;64554;43.452;4.934;2023-09-07T05:35:39;13.25;12.25;8.50
69349;PMS5003;64554;43.452;4.934;2023-09-07T05:38:06;14.20;13.00;9.80
69349;PMS5003;64554;43.452;4.934;2023-09-07T05:40:36;11.40;11.00;8.60
69349;PMS5003;64554;43.452;4.934;2023-09-07T05:43:02;10.00;10.00;6.40
69349;PMS5003;64554;43.452;4.934;2023-09-07T05:45:30;16.25;14.75;8.25
69349;PMS5003;64554;43.452;4.934;2023-09-07T05:47:58;14.00;13.00;9.75
69349;PMS5003;64554;43.452;4.934;2023-09-07T05:50:24;13.60;11.00;8.00
69349;PMS5003;64554;43.452;4.934;2023-09-07T05:52:51;10.50;10.50;7.50
69349;PMS5003;64554;43.452;4.934;2023-09-07T05:55:17;10.50;10.50;8.00
69349;PMS5003;64554;43.452;4.934;2023-09-07T05:57:44;15.00;14.00;9.00
69349;PMS5003;64554;43.452;4.934;2023-09-07T06:00:12;13.50;13.50;9.00
69349;PMS5003;64554;43.452;4.934;2023-09-07T06:02:39;15.00;15.00;8.25
69349;PMS5003;64554;43.452;4.934;2023-09-07T06:05:06;13.00;13.00;9.50
69349;PMS5003;64554;43.452;4.934;2023-09-07T06:07:33;13.00;13.00;9.00
69349;PMS5003;64554;43.452;4.934;2023-09-07T06:10:00;13.50;13.50;8.50
69349;PMS5003;64554;43.452;4.934;2023-09-07T06:12:26;12.60;12.60;8.60
69349;PMS5003;64554;43.452;4.934;2023-09-07T06:14:53;13.25;11.25;8.50
69349;PMS5003;64554;43.452;4.934;2023-09-07T06:17:19;11.75;11.75;8.75
69349;PMS5003;64554;43.452;4.934;2023-09-07T06:19:46;10.25;10.25;7.25
69349;PMS5003;64554;43.452;4.934;2023-09-07T06:22:13;14.60;14.60;7.60
69349;PMS5003;64554;43.452;4.934;2023-09-07T06:24:40;11.00;11.00;9.00
69349;PMS5003;64554;43.452;4.934;2023-09-07T06:27:06;12.80;12.40;8.40
69349;PMS5003;64554;43.452;4.934;2023-09-07T06:29:33;14.00;14.00;10.00
69349;PMS5003;64554;43.452;4.934;2023-09-07T06:31:59;14.00;12.00;9.00
69349;PMS5003;64554;43.452;4.934;2023-09-07T06:34:27;12.00;11.80;8.80
69349;PMS5003;64554;43.452;4.934;2023-09-07T06:36:53;12.20;12.20;9.00
69349;PMS5003;64554;43.452;4.934;2023-09-07T06:39:20;10.80;9.80;6.80
69349;PMS5003;64554;43.452;4.934;2023-09-07T06:41:47;13.00;13.00;10.00
69349;PMS5003;64554;43.452;4.934;2023-09-07T06:44:14;12.60;11.00;9.00
69349;PMS5003;64554;43.452;4.934;2023-09-07T06:46:41;15.20;12.20;8.80
69349;PMS5003;64554;43.452;4.934;2023-09-07T06:49:08;17.80;14.20;10.00
69349;PMS5003;64554;43.452;4.934;2023-09-07T06:51:35;18.60;17.80;10.60
69349;PMS5003;64554;43.452;4.934;2023-09-07T06:54:02;14.60;12.20;8.20
69349;PMS5003;64554;43.452;4.934;2023-09-07T06:56:30;14.00;14.00;9.00
69349;PMS5003;64554;43.452;4.934;2023-09-07T06:58:58;14.60;13.00;7.60
69349;PMS5003;64554;43.452;4.934;2023-09-07T07:01:25;13.00;12.00;10.00
69349;PMS5003;64554;43.452;4.934;2023-09-07T07:03:51;12.00;12.00;8.00
69349;PMS5003;64554;43.452;4.934;2023-09-07T07:06:19;12.80;12.20;8.80
69349;PMS5003;64554;43.452;4.934;2023-09-07T07:08:46;10.75;10.75;6.50
69349;PMS5003;64554;43.452;4.934;2023-09-07T07:11:12;14.00;14.00;10.00
69349;PMS5003;64554;43.452;4.934;2023-09-07T07:13:39;13.00;13.00;9.25
69349;PMS5003;64554;43.452;4.934;2023-09-07T07:16:06;14.20;12.60;9.60
69349;PMS5003;64554;43.452;4.934;2023-09-07T07:18:33;16.00;16.00;12.00
69349;PMS5003;64554;43.452;4.934;2023-09-07T07:20:59;13.00;13.00;10.00
69349;PMS5003;64554;43.452;4.934;2023-09-07T07:23:26;15.50;14.00;9.50
69349;PMS5003;64554;43.452;4.934;2023-09-07T07:25:53;15.00;15.00;11.50
69349;PMS5003;64554;43.452;4.934;2023-09-07T07:28:19;20.00;20.00;16.00
69349;PMS5003;64554;43.452;4.934;2023-09-07T07:30:46;34.25;27.50;22.00
69349;PMS5003;64554;43.452;4.934;2023-09-07T07:33:14;22.20;18.20;14.40
69349;PMS5003;64554;43.452;4.934;2023-09-07T07:35:41;16.75;14.50;10.75
69349;PMS5003;64554;43.452;4.934;2023-09-07T07:38:08;16.75;15.75;8.75
69349;PMS5003;64554;43.452;4.934;2023-09-07T07:40:34;14.40;14.40;11.80
69349;PMS5003;64554;43.452;4.934;2023-09-07T07:43:01;20.33;19.00;11.00
69349;PMS5003;64554;43.452;4.934;2023-09-07T07:45:29;15.00;14.50;9.25
69349;PMS5003;64554;43.452;4.934;2023-09-07T07:47:56;10.25;9.25;6.75
69349;PMS5003;64554;43.452;4.934;2023-09-07T07:50:23;13.00;11.25;7.25
69349;PMS5003;64554;43.452;4.934;2023-09-07T07:52:49;10.80;10.20;7.00
69349;PMS5003;64554;43.452;4.934;2023-09-07T07:55:16;13.60;12.60;7.80
69349;PMS5003;64554;43.452;4.934;2023-09-07T07:57:43;12.40;10.20;7.20
69349;PMS5003;64554;43.452;4.934;2023-09-07T08:00:10;13.00;13.00;9.00
69349;PMS5003;64554;43.452;4.934;2023-09-07T08:02:36;11.50;11.50;8.00
69349;PMS5003;64554;43.452;4.934;2023-09-07T08:05:04;14.75;11.00;8.75
69349;PMS5003;64554;43.452;4.934;2023-09-07T08:07:31;17.50;17.50;10.25
69349;PMS5003;64554;43.452;4.934;2023-09-07T08:09:58;12.00;12.00;7.50
69349;PMS5003;64554;43.452;4.934;2023-09-07T08:12:24;10.75;10.75;8.75
69349;PMS5003;64554;43.452;4.934;2023-09-07T08:14:51;11.80;11.80;8.40
69349;PMS5003;64554;43.452;4.934;2023-09-07T08:17:17;12.25;12.25;8.50
69349;PMS5003;64554;43.452;4.934;2023-09-07T08:19:46;14.60;13.60;9.00
69349;PMS5003;64554;43.452;4.934;2023-09-07T08:22:15;11.60;11.60;9.60
69349;PMS5003;64554;43.452;4.934;2023-09-07T08:24:42;12.80;12.80;9.00
69349;PMS5003;64554;43.452;4.934;2023-09-07T08:27:10;11.00;11.00;8.00
69349;PMS5003;64554;43.452;4.934;2023-09-07T08:29:42;10.75;10.75;9.75
69349;PMS5003;64554;43.452;4.934;2023-09-07T08:32:13;9.00;9.00;7.80
69349;PMS5003;64554;43.452;4.934;2023-09-07T08:34:40;11.75;11.75;7.00
69349;PMS5003;64554;43.452;4.934;2023-09-07T08:37:08;11.60;11.40;8.00
69349;PMS5003;64554;43.452;4.934;2023-09-07T08:39:37;14.40;12.40;9.40
69349;PMS5003;64554;43.452;4.934;2023-09-07T08:42:05;11.75;11.75;8.75
69349;PMS5003;64554;43.452;4.934;2023-09-07T08:44:32;11.00;9.00;6.40
69349;PMS5003;64554;43.452;4.934;2023-09-07T08:46:59;9.00;9.00;6.50
69349;PMS5003;64554;43.452;4.934;2023-09-07T08:49:29;9.40;9.40;6.40
69349;PMS5003;64554;43.452;4.934;2023-09-07T08:51:59;9.40;9.40;8.00
69349;PMS5003;64554;43.452;4.934;2023-09-07T08:54:26;9.60;9.60;7.60
69349;PMS5003;64554;43.452;4.934;2023-09-07T08:56:53;12.40;12.40;8.40
69349;PMS5003;64554;43.452;4.934;2023-09-07T08:59:19;10.20;10.20;8.20
69349;PMS5003;64554;43.452;4.934;2023-09-07T09:01:46;7.75;7.75;5.50
69349;PMS5003;64554;43.452;4.934;2023-09-07T09:04:13;12.00;12.00;9.80
69349;PMS5003;64554;43.452;4.934;2023-09-07T09:06:39;10.25;10.25;8.25
69349;PMS5003;64554;43.452;4.934;2023-09-07T09:09:06;23.75;17.75;15.50
69349;PMS5003;64554;43.452;4.934;2023-09-07T09:11:33;28.50;17.25;15.00
69349;PMS5003;64554;43.452;4.934;2023-09-07T09:13:59;29.00;18.00;15.00
69349;PMS5003;64554;43.452;4.934;2023-09-07T09:16:26;36.25;25.00;21.50
69349;PMS5003;64554;43.452;4.934;2023-09-07T09:18:53;26.00;19.75;17.00
69349;PMS5003;64554;43.452;4.934;2023-09-07T09:21:21;36.80;26.40;22.00
69349;PMS5003;64554;43.452;4.934;2023-09-07T09:23:48;32.50;29.25;23.75
69349;PMS5003;64554;43.452;4.934;2023-09-07T09:26:16;11.40;11.40;9.40
69349;PMS5003;64554;43.452;4.934;2023-09-07T09:28:43;16.25;9.50;8.00
69349;PMS5003;64554;43.452;4.934;2023-09-07T09:31:13;14.50;13.75;10.00
69349;PMS5003;64554;43.452;4.934;2023-09-07T09:33:40;19.25;18.00;15.00
69349;PMS5003;64554;43.452;4.934;2023-09-07T09:36:07;31.00;21.00;18.60
69349;PMS5003;64554;43.452;4.934;2023-09-07T09:38:34;18.60;16.40;14.60
69349;PMS5003;64554;43.452;4.934;2023-09-07T09:41:01;8.00;8.00;6.20
69349;PMS5003;64554;43.452;4.934;2023-09-07T09:43:29;10.33;10.00;7.67
69349;PMS5003;64554;43.452;4.934;2023-09-07T09:45:56;9.25;9.25;7.25
69349;PMS5003;64554;43.452;4.934;2023-09-07T09:48:22;10.50;10.50;8.00
69349;PMS5003;64554;43.452;4.934;2023-09-07T09:50:50;10.60;10.60;8.60
69349;PMS5003;64554;43.452;4.934;2023-09-07T09:53:17;31.40;23.20;20.60
69349;PMS5003;64554;43.452;4.934;2023-09-07T09:55:45;29.20;23.00;21.00
69349;PMS5003;64554;43.452;4.934;2023-09-07T09:58:15;11.80;10.80;8.80
69349;PMS5003;64554;43.452;4.934;2023-09-07T10:00:43;17.40;15.80;14.60
69349;PMS5003;64554;43.452;4.934;2023-09-07T10:03:12;33.75;25.00;21.75
69349;PMS5003;64554;43.452;4.934;2023-09-07T10:05:40;15.50;15.50;13.25
69349;PMS5003;64554;43.452;4.934;2023-09-07T10:08:14;14.00;14.00;11.40
69349;PMS5003;64554;43.452;4.934;2023-09-07T10:10:41;19.25;17.50;15.50
69349;PMS5003;64554;43.452;4.934;2023-09-07T10:13:08;18.20;11.80;10.00
69349;PMS5003;64554;43.452;4.934;2023-09-07T10:15:34;24.75;18.25;17.25
69349;PMS5003;64554;43.452;4.934;2023-09-07T10:23:17;23.00;17.00;15.75
69349;PMS5003;64554;43.452;4.934;2023-09-07T10:25:47;24.50;16.75;15.75
69349;PMS5003;64554;43.452;4.934;2023-09-07T10:28:21;21.00;16.20;14.20
69349;PMS5003;64554;43.452;4.934;2023-09-07T10:30:58;19.00;19.00;16.25
69349;PMS5003;64554;43.452;4.934;2023-09-07T10:33:24;20.75;18.25;16.75
69349;PMS5003;64554;43.452;4.934;2023-09-07T10:35:51;20.20;20.20;18.20
69349;PMS5003;64554;43.452;4.934;2023-09-07T10:38:17;27.60;18.80;16.80
69349;PMS5003;64554;43.452;4.934;2023-09-07T10:40:44;26.00;20.50;18.50
69349;PMS5003;64554;43.452;4.934;2023-09-07T10:43:12;13.40;13.40;10.40
69349;PMS5003;64554;43.452;4.934;2023-09-07T10:45:38;21.75;14.25;11.25
69349;PMS5003;64554;43.452;4.934;2023-09-07T10:48:06;21.50;19.00;15.00
69349;PMS5003;64554;43.452;4.934;2023-09-07T10:50:44;23.60;13.20;12.20
69349;PMS5003;64554;43.452;4.934;2023-09-07T10:53:11;20.75;15.00;12.75
69349;PMS5003;64554;43.452;4.934;2023-09-07T10:55:38;21.00;20.00;17.20
69349;PMS5003;64554;43.452;4.934;2023-09-07T10:58:11;16.00;15.60;14.00
69349;PMS5003;64554;43.452;4.934;2023-09-07T11:00:37;10.50;10.50;9.50
69349;PMS5003;64554;43.452;4.934;2023-09-07T11:03:08;21.00;18.25;16.50
69349;PMS5003;64554;43.452;4.934;2023-09-07T11:05:37;25.00;17.00;16.00
69349;PMS5003;64554;43.452;4.934;2023-09-07T11:08:05;9.20;9.20;7.80
69349;PMS5003;64554;43.452;4.934;2023-09-07T11:10:33;15.25;15.25;13.75
69349;PMS5003;64554;43.452;4.934;2023-09-07T11:13:03;12.20;12.00;9.00
69349;PMS5003;64554;43.452;4.934;2023-09-07T11:15:31;29.00;20.00;18.00
69349;PMS5003;64554;43.452;4.934;2023-09-07T11:17:58;12.20;11.60;10.00
69349;PMS5003;64554;43.452;4.934;2023-09-07T11:20:25;32.25;29.25;23.50
69349;PMS5003;64554;43.452;4.934;2023-09-07T11:22:53;22.25;15.75;13.25
69349;PMS5003;64554;43.452;4.934;2023-09-07T11:25:37;11.00;11.00;8.25
69349;PMS5003;64554;43.452;4.934;2023-09-07T11:28:04;15.80;15.40;13.20
69349;PMS5003;64554;43.452;4.934;2023-09-07T11:30:32;31.60;24.20;21.40
69349;PMS5003;64554;43.452;4.934;2023-09-07T11:33:08;11.80;11.60;9.20
69349;PMS5003;64554;43.452;4.934;2023-09-07T11:35:34;30.00;24.25;21.75
69349;PMS5003;64554;43.452;4.934;2023-09-07T11:38:02;14.60;14.60;12.60
69349;PMS5003;64554;43.452;4.934;2023-09-07T11:40:34;12.00;9.50;8.50
69349;PMS5003;64554;43.452;4.934;2023-09-07T11:43:01;28.75;21.75;20.00
69349;PMS5003;64554;43.452;4.934;2023-09-07T11:45:28;47.50;35.00;28.25
69349;PMS5003;64554;43.452;4.934;2023-09-07T11:47:55;16.40;16.40;15.00
69349;PMS5003;64554;43.452;4.934;2023-09-07T11:50:23;26.50;15.75;13.75
69349;PMS5003;64554;43.452;4.934;2023-09-07T11:52:50;16.00;16.00;13.00
69349;PMS5003;64554;43.452;4.934;2023-09-07T11:55:16;30.50;20.25;19.00
69349;PMS5003;64554;43.452;4.934;2023-09-07T11:57:43;29.75;17.25;15.25
69349;PMS5003;64554;43.452;4.934;2023-09-07T12:00:11;21.80;17.00;14.40
69349;PMS5003;64554;43.452;4.934;2023-09-07T12:02:41;38.60;32.00;26.00
69349;PMS5003;64554;43.452;4.934;2023-09-07T12:05:08;37.20;26.80;22.00
69349;PMS5003;64554;43.452;4.934;2023-09-07T12:07:36;35.20;26.60;22.20
69349;PMS5003;64554;43.452;4.934;2023-09-07T12:10:03;35.40;26.40;22.00
69349;PMS5003;64554;43.452;4.934;2023-09-07T12:12:29;27.60;20.20;17.80
69349;PMS5003;64554;43.452;4.934;2023-09-07T12:14:56;22.80;16.40;14.40
69349;PMS5003;64554;43.452;4.934;2023-09-07T12:17:23;12.60;12.60;10.00
69349;PMS5003;64554;43.452;4.934;2023-09-07T12:19:50;14.50;14.50;11.50
69349;PMS5003;64554;43.452;4.934;2023-09-07T12:22:16;13.00;13.00;8.50
69349;PMS5003;64554;43.452;4.934;2023-09-07T12:24:43;17.25;13.25;10.25
69349;PMS5003;64554;43.452;4.934;2023-09-07T12:27:10;11.60;11.60;9.60
69349;PMS5003;64554;43.452;4.934;2023-09-07T12:29:37;9.40;9.40;6.80
69349;PMS5003;64554;43.452;4.934;2023-09-07T12:32:03;7.00;6.00;4.00
69349;PMS5003;64554;43.452;4.934;2023-09-07T12:34:30;10.00;9.00;6.20
69349;PMS5003;64554;43.452;4.934;2023-09-07T12:36:58;8.40;8.40;7.00
69349;PMS5003;64554;43.452;4.934;2023-09-07T12:39:25;8.80;8.00;6.40
69349;PMS5003;64554;43.452;4.934;2023-09-07T12:41:52;8.00;8.00;6.25
69349;PMS5003;64554;43.452;4.934;2023-09-07T12:44:18;11.00;8.00;6.00
69349;PMS5003;64554;43.452;4.934;2023-09-07T12:46:47;13.75;12.00;4.00
69349;PMS5003;64554;43.452;4.934;2023-09-07T12:49:14;7.00;7.00;4.00
69349;PMS5003;64554;43.452;4.934;2023-09-07T12:51:42;7.50;7.50;5.00
69349;PMS5003;64554;43.452;4.934;2023-09-07T12:54:08;9.20;8.20;4.00
69349;PMS5003;64554;43.452;4.934;2023-09-07T12:56:35;7.80;7.80;6.60
69349;PMS5003;64554;43.452;4.934;2023-09-07T12:59:01;9.00;9.00;6.00
69349;PMS5003;64554;43.452;4.934;2023-09-07T13:01:30;8.00;6.25;5.00
69349;PMS5003;64554;43.452;4.934;2023-09-07T13:03:57;8.60;8.60;6.80
69349;PMS5003;64554;43.452;4.934;2023-09-07T13:06:24;11.25;10.00;5.50
69349;PMS5003;64554;43.452;4.934;2023-09-07T13:08:51;9.60;9.60;8.00
69349;PMS5003;64554;43.452;4.934;2023-09-07T13:11:18;7.00;7.00;5.50
69349;PMS5003;64554;43.452;4.934;2023-09-07T13:13:44;8.33;8.33;6.33
69349;PMS5003;64554;43.452;4.934;2023-09-07T13:16:11;10.00;10.00;6.50
69349;PMS5003;64554;43.452;4.934;2023-09-07T13:18:38;8.00;6.00;4.00
69349;PMS5003;64554;43.452;4.934;2023-09-07T13:21:04;8.75;8.75;7.25
69349;PMS5003;64554;43.452;4.934;2023-09-07T13:23:33;8.25;8.25;6.00
69349;PMS5003;64554;43.452;4.934;2023-09-07T13:26:00;7.20;7.20;5.00
69349;PMS5003;64554;43.452;4.934;2023-09-07T13:28:27;6.60;6.60;4.60
69349;PMS5003;64554;43.452;4.934;2023-09-07T13:30:57;8.40;7.40;5.60
69349;PMS5003;64554;43.452;4.934;2023-09-07T13:33:24;6.00;6.00;5.00
69349;PMS5003;64554;43.452;4.934;2023-09-07T13:35:51;11.50;11.50;7.50
69349;PMS5003;64554;43.452;4.934;2023-09-07T13:38:18;6.40;6.40;5.00
69349;PMS5003;64554;43.452;4.934;2023-09-07T13:40:45;10.80;9.40;6.40
69349;PMS5003;64554;43.452;4.934;2023-09-07T13:43:11;8.00;8.00;5.50
69349;PMS5003;64554;43.452;4.934;2023-09-07T13:45:38;8.75;7.00;5.00
69349;PMS5003;64554;43.452;4.934;2023-09-07T13:48:05;7.50;7.00;5.50
69349;PMS5003;64554;43.452;4.934;2023-09-07T13:50:32;9.00;9.00;7.00
69349;PMS5003;64554;43.452;4.934;2023-09-07T13:53:01;7.33;7.33;5.33
69349;PMS5003;64554;43.452;4.934;2023-09-07T13:55:28;7.40;7.40;6.00
69349;PMS5003;64554;43.452;4.934;2023-09-07T13:57:54;9.40;9.40;7.00
69349;PMS5003;64554;43.452;4.934;2023-09-07T14:00:21;7.75;7.75;4.75
69349;PMS5003;64554;43.452;4.934;2023-09-07T14:02:48;9.60;9.20;6.60
69349;PMS5003;64554;43.452;4.934;2023-09-07T14:05:15;9.20;8.60;6.00